createdAt,value
2022-10-23T00:00:54.666Z,13.41
2022-10-23T00:01:48.081Z,13.47
2022-10-23T00:02:48.258Z,13.49
2022-10-23T00:03:48.320Z,13.44
2022-10-23T00:04:48.404Z,13.50
2022-10-23T00:05:48.531Z,13.42
2022-10-23T00:06:48.736Z,13.44
2022-10-23T00:07:48.782Z,13.52
2022-10-23T00:08:48.904Z,13.50
2022-10-23T00:09:49.013Z,13.38
2022-10-23T00:10:49.136Z,13.31
2022-10-23T00:11:49.284Z,13.39
2022-10-23T00:12:49.377Z,13.39
2022-10-23T00:13:49.500Z,13.37
2022-10-23T00:14:49.611Z,13.41
2022-10-23T00:15:49.723Z,13.44
2022-10-23T00:16:49.863Z,13.38
2022-10-23T00:17:49.951Z,13.42
2022-10-23T00:18:50.086Z,13.35
2022-10-23T00:19:50.215Z,13.38
2022-10-23T00:20:50.303Z,13.22
2022-10-23T00:21:50.420Z,13.37
2022-10-23T00:22:50.550Z,13.37
2022-10-23T00:23:50.832Z,13.39
2022-10-23T00:24:50.800Z,13.39
2022-10-23T00:25:50.936Z,13.37
2022-10-23T00:26:51.066Z,13.37
2022-10-23T00:27:51.188Z,13.33
2022-10-23T00:28:51.353Z,13.37
2022-10-23T00:29:51.438Z,13.35
2022-10-23T00:30:51.570Z,13.23
2022-10-23T00:31:51.731Z,13.25
2022-10-23T00:32:51.812Z,13.27
2022-10-23T00:33:51.993Z,13.30
2022-10-23T00:34:52.099Z,13.20
2022-10-23T00:35:52.192Z,13.28
2022-10-23T00:36:52.323Z,13.27
2022-10-23T00:37:52.471Z,13.27
2022-10-23T00:38:52.598Z,13.23
2022-10-23T00:39:52.770Z,13.27
2022-10-23T00:40:52.869Z,13.27
2022-10-23T00:41:53.005Z,13.30
2022-10-23T00:42:53.128Z,13.27
2022-10-23T00:43:53.267Z,13.28
2022-10-23T00:44:53.435Z,13.22
2022-10-23T00:45:53.542Z,13.19
2022-10-23T00:46:53.672Z,13.25
2022-10-23T00:47:53.810Z,13.19
2022-10-23T00:48:53.942Z,13.19
2022-10-23T00:49:54.113Z,13.27
2022-10-23T00:50:54.192Z,13.20
2022-10-23T00:51:54.346Z,13.27
2022-10-23T00:52:54.453Z,13.13
2022-10-23T00:54:01.358Z,13.13
2022-10-23T00:54:54.715Z,13.20
2022-10-23T00:55:54.876Z,13.19
2022-10-23T00:56:54.975Z,13.22
2022-10-23T00:57:55.126Z,13.20
2022-10-23T00:58:55.213Z,13.20
2022-10-23T00:59:55.332Z,13.13
2022-10-23T01:00:55.702Z,13.09
2022-10-23T01:01:55.748Z,13.22
2022-10-23T01:02:55.764Z,13.16
2022-10-23T01:03:55.876Z,13.09
2022-10-23T01:04:56.032Z,13.15
2022-10-23T01:05:56.209Z,13.20
2022-10-23T01:06:56.459Z,13.18
2022-10-23T01:07:56.497Z,13.20
2022-10-23T01:08:56.659Z,13.20
2022-10-23T01:09:56.806Z,13.22
2022-10-23T01:10:56.959Z,13.16
2022-10-23T01:11:57.155Z,13.20
2022-10-23T01:12:57.300Z,13.18
2022-10-23T01:13:57.497Z,13.15
2022-10-23T01:14:57.609Z,13.15
2022-10-23T01:15:57.763Z,13.20
2022-10-23T01:16:57.935Z,13.11
2022-10-23T01:17:58.062Z,13.09
2022-10-23T01:18:58.161Z,13.16
2022-10-23T01:19:58.322Z,13.18
2022-10-23T01:20:58.413Z,13.19
2022-10-23T01:21:58.557Z,13.20
2022-10-23T01:22:58.819Z,13.13
2022-10-23T01:23:58.787Z,13.16
2022-10-23T01:24:58.914Z,13.19
2022-10-23T01:25:59.028Z,13.05
2022-10-23T01:26:59.162Z,13.09
2022-10-23T01:27:59.334Z,13.13
2022-10-23T01:28:59.488Z,13.13
2022-10-23T01:29:59.613Z,13.16
2022-10-23T01:30:59.761Z,13.11
2022-10-23T01:31:59.923Z,13.15
2022-10-23T01:33:00.067Z,13.13
2022-10-23T01:34:00.270Z,13.11
2022-10-23T01:35:00.372Z,13.04
2022-10-23T01:36:00.522Z,13.04
2022-10-23T01:37:00.679Z,13.12
2022-10-23T01:38:00.885Z,13.04
2022-10-23T01:39:01.085Z,13.11
2022-10-23T01:40:01.105Z,13.16
2022-10-23T01:41:01.258Z,13.08
2022-10-23T01:42:01.406Z,13.09
2022-10-23T01:43:01.584Z,13.09
2022-10-23T01:44:01.693Z,13.15
2022-10-23T01:45:01.839Z,13.04
2022-10-23T01:46:01.991Z,13.08
2022-10-23T01:47:02.129Z,13.13
2022-10-23T01:48:02.374Z,13.16
2022-10-23T01:49:02.440Z,13.12
2022-10-23T01:50:02.561Z,13.12
2022-10-23T01:51:02.697Z,13.00
2022-10-23T01:52:02.838Z,13.15
2022-10-23T01:53:03.013Z,13.04
2022-10-23T01:54:03.160Z,13.12
2022-10-23T01:55:03.278Z,13.09
2022-10-23T01:56:03.689Z,13.09
2022-10-23T01:57:03.591Z,13.12
2022-10-23T01:58:03.744Z,13.05
2022-10-23T01:59:03.983Z,13.09
2022-10-23T02:00:04.049Z,13.03
2022-10-23T02:01:04.283Z,13.00
2022-10-23T02:02:04.508Z,13.01
2022-10-23T02:03:04.476Z,12.98
2022-10-23T02:04:04.627Z,13.08
2022-10-23T02:05:04.711Z,13.00
2022-10-23T02:06:04.838Z,13.01
2022-10-23T02:07:04.962Z,13.03
2022-10-23T02:08:05.107Z,12.98
2022-10-23T02:09:05.264Z,13.03
2022-10-23T02:10:05.334Z,13.01
2022-10-23T02:11:05.489Z,13.00
2022-10-23T02:12:05.600Z,13.01
2022-10-23T02:13:05.721Z,13.00
2022-10-23T02:14:05.841Z,12.97
2022-10-23T02:15:06.040Z,12.95
2022-10-23T02:16:06.095Z,12.95
2022-10-23T02:17:06.209Z,12.94
2022-10-23T02:18:06.322Z,12.94
2022-10-23T02:19:06.646Z,12.91
2022-10-23T02:20:06.612Z,12.93
2022-10-23T02:21:06.784Z,12.97
2022-10-23T02:22:06.865Z,12.95
2022-10-23T02:23:06.988Z,12.91
2022-10-23T02:24:07.156Z,12.91
2022-10-23T02:25:07.260Z,12.91
2022-10-23T02:26:07.554Z,12.91
2022-10-23T02:27:07.529Z,12.85
2022-10-23T02:28:07.666Z,12.85
2022-10-23T02:29:07.812Z,12.87
2022-10-23T02:30:07.940Z,12.82
2022-10-23T02:31:08.106Z,12.83
2022-10-23T02:32:08.266Z,12.82
2022-10-23T02:33:08.356Z,12.85
2022-10-23T02:34:08.487Z,12.85
2022-10-23T02:35:08.630Z,12.83
2022-10-23T02:36:08.767Z,12.82
2022-10-23T02:37:09.087Z,12.80
2022-10-23T02:38:09.047Z,12.82
2022-10-23T02:39:09.235Z,12.73
2022-10-23T02:40:09.339Z,12.70
2022-10-23T02:41:09.476Z,12.73
2022-10-23T02:42:09.634Z,12.68
2022-10-23T02:43:09.742Z,12.62
2022-10-23T02:44:09.877Z,12.62
2022-10-23T02:45:10.026Z,12.75
2022-10-23T02:46:10.193Z,12.62
2022-10-23T02:47:10.400Z,12.62
2022-10-23T02:48:10.524Z,12.68
2022-10-23T02:49:10.784Z,12.64
2022-10-23T02:50:10.854Z,12.61
2022-10-23T02:51:11.035Z,12.61
2022-10-23T02:52:11.202Z,12.57
2022-10-23T02:53:11.349Z,12.61
2022-10-23T02:54:11.661Z,12.57
2022-10-23T02:55:11.652Z,12.60
2022-10-23T02:56:11.816Z,12.49
2022-10-23T02:57:11.993Z,12.50
2022-10-23T02:58:12.157Z,12.57
2022-10-23T02:59:12.354Z,12.60
2022-10-23T03:00:12.481Z,12.62
2022-10-23T03:01:12.794Z,12.61
2022-10-23T03:02:12.951Z,12.55
2022-10-23T03:03:12.928Z,12.61
2022-10-23T03:04:13.126Z,12.53
2022-10-23T03:05:13.239Z,12.62
2022-10-23T03:06:13.397Z,12.47
2022-10-23T03:07:13.559Z,12.50
2022-10-23T03:08:13.726Z,12.49
2022-10-23T03:09:13.940Z,12.49
2022-10-23T03:10:14.047Z,12.50
2022-10-23T03:11:14.222Z,12.53
2022-10-23T03:12:14.347Z,12.43
2022-10-23T03:13:14.484Z,12.49
2022-10-23T03:14:14.622Z,12.43
2022-10-23T03:15:14.793Z,12.47
2022-10-23T03:16:14.912Z,12.47
2022-10-23T03:17:15.076Z,12.46
2022-10-23T03:18:15.190Z,12.46
2022-10-23T03:19:15.335Z,12.49
2022-10-23T03:20:15.472Z,12.42
2022-10-23T03:21:15.605Z,12.35
2022-10-23T03:22:15.777Z,12.37
2022-10-23T03:23:15.877Z,12.42
2022-10-23T03:24:16.014Z,12.37
2022-10-23T03:25:16.185Z,12.35
2022-10-23T03:26:16.298Z,12.36
2022-10-23T03:27:16.610Z,12.32
2022-10-23T03:28:16.601Z,12.35
2022-10-23T03:29:16.781Z,12.31
2022-10-23T03:30:16.893Z,12.31
2022-10-23T03:31:17.037Z,12.24
2022-10-23T03:32:17.197Z,12.21
2022-10-23T03:33:17.433Z,12.27
2022-10-23T03:34:17.457Z,12.28
2022-10-23T03:35:17.586Z,12.17
2022-10-23T03:36:17.716Z,12.22
2022-10-23T03:37:17.859Z,12.25
2022-10-23T03:38:18.025Z,12.21
2022-10-23T03:39:18.157Z,12.22
2022-10-23T03:40:18.263Z,12.17
2022-10-23T03:41:18.428Z,12.18
2022-10-23T03:42:18.544Z,12.15
2022-10-23T03:43:18.746Z,12.20
2022-10-23T03:44:18.810Z,12.21
2022-10-23T03:45:18.950Z,12.18
2022-10-23T03:46:19.083Z,12.20
2022-10-23T03:47:19.214Z,12.18
2022-10-23T03:48:19.383Z,12.22
2022-10-23T03:49:19.605Z,12.21
2022-10-23T03:50:19.604Z,12.18
2022-10-23T03:51:19.745Z,12.27
2022-10-23T03:52:19.947Z,12.22
2022-10-23T03:53:20.018Z,12.10
2022-10-23T03:54:20.226Z,12.12
2022-10-23T03:55:20.301Z,12.12
2022-10-23T03:56:20.442Z,12.09
2022-10-23T03:57:20.606Z,12.09
2022-10-23T03:58:20.731Z,12.10
2022-10-23T03:59:20.911Z,12.06
2022-10-23T04:00:21.075Z,12.04
2022-10-23T04:01:21.342Z,12.10
2022-10-23T04:02:21.544Z,12.12
2022-10-23T04:03:21.567Z,12.09
2022-10-23T04:04:21.733Z,12.04
2022-10-23T04:05:21.910Z,12.02
2022-10-23T04:06:22.173Z,12.04
2022-10-23T04:07:22.259Z,12.04
2022-10-23T04:08:22.426Z,12.02
2022-10-23T04:09:22.588Z,12.00
2022-10-23T04:10:22.737Z,11.86
2022-10-23T04:11:22.909Z,11.86
2022-10-23T04:12:23.093Z,11.94
2022-10-23T04:13:23.197Z,11.95
2022-10-23T04:14:23.371Z,11.84
2022-10-23T04:15:23.574Z,11.83
2022-10-23T04:16:23.750Z,11.80
2022-10-23T04:17:23.932Z,11.81
2022-10-23T04:18:24.033Z,11.83
2022-10-23T04:19:24.212Z,11.86
2022-10-23T04:20:24.394Z,11.88
2022-10-23T04:21:24.743Z,11.80
2022-10-23T04:22:27.507Z,11.84
2022-10-23T04:23:24.919Z,11.84
2022-10-23T04:24:25.091Z,11.88
2022-10-23T04:25:25.263Z,11.80
2022-10-23T04:26:25.591Z,11.84
2022-10-23T04:27:25.618Z,11.77
2022-10-23T04:28:25.740Z,11.69
2022-10-23T04:29:25.896Z,11.75
2022-10-23T04:30:26.050Z,11.68
2022-10-23T04:31:26.242Z,11.75
2022-10-23T04:32:26.400Z,11.70
2022-10-23T04:33:26.519Z,11.72
2022-10-23T04:34:26.671Z,11.66
2022-10-23T04:35:26.857Z,11.68
2022-10-23T04:36:26.985Z,11.70
2022-10-23T04:37:27.144Z,11.69
2022-10-23T04:38:27.329Z,11.72
2022-10-23T04:39:27.454Z,11.69
2022-10-23T04:40:27.604Z,11.73
2022-10-23T04:41:27.758Z,11.70
2022-10-23T04:43:28.087Z,11.72
2022-10-23T04:44:28.250Z,11.75
2022-10-23T04:45:28.416Z,11.69
2022-10-23T04:46:28.563Z,11.70
2022-10-23T04:47:28.745Z,11.73
2022-10-23T04:48:29.297Z,11.70
2022-10-23T04:49:29.058Z,11.70
2022-10-23T04:50:29.194Z,11.69
2022-10-23T04:51:29.333Z,11.70
2022-10-23T04:52:29.495Z,11.73
2022-10-23T04:53:29.645Z,11.69
2022-10-23T04:54:29.830Z,11.69
2022-10-23T04:55:29.946Z,11.72
2022-10-23T04:56:30.106Z,11.65
2022-10-23T04:57:30.286Z,11.69
2022-10-23T04:58:30.418Z,11.75
2022-10-23T04:59:30.601Z,11.65
2022-10-23T05:00:30.776Z,11.69
2022-10-23T05:01:31.031Z,11.65
2022-10-23T05:02:31.019Z,11.63
2022-10-23T05:03:31.162Z,11.70
2022-10-23T05:04:31.317Z,11.65
2022-10-23T05:05:31.482Z,11.60
2022-10-23T05:06:31.671Z,11.63
2022-10-23T05:07:31.797Z,11.62
2022-10-23T05:08:31.966Z,11.59
2022-10-23T05:09:32.138Z,11.59
2022-10-23T05:10:32.297Z,11.57
2022-10-23T05:11:32.556Z,11.62
2022-10-23T05:12:32.633Z,11.65
2022-10-23T05:13:32.815Z,11.66
2022-10-23T05:14:32.951Z,11.68
2022-10-23T05:15:33.244Z,11.63
2022-10-23T05:16:33.294Z,11.68
2022-10-23T05:17:33.429Z,11.68
2022-10-23T05:18:33.583Z,11.60
2022-10-23T05:19:33.777Z,11.59
2022-10-23T05:20:33.891Z,11.63
2022-10-23T05:21:34.040Z,11.57
2022-10-23T05:22:34.193Z,11.60
2022-10-23T05:23:34.342Z,11.60
2022-10-23T05:24:34.537Z,11.57
2022-10-23T05:25:34.639Z,11.60
2022-10-23T05:26:34.778Z,11.68
2022-10-23T05:27:34.929Z,11.54
2022-10-23T05:28:35.090Z,11.63
2022-10-23T05:29:35.289Z,11.57
2022-10-23T05:30:35.382Z,11.50
2022-10-23T05:31:35.538Z,11.50
2022-10-23T05:32:35.693Z,11.57
2022-10-23T05:33:35.860Z,11.52
2022-10-23T05:34:36.049Z,11.57
2022-10-23T05:35:36.170Z,11.51
2022-10-23T05:36:36.327Z,11.52
2022-10-23T05:37:36.490Z,11.47
2022-10-23T05:38:36.650Z,11.48
2022-10-23T05:39:36.947Z,11.45
2022-10-23T05:40:36.961Z,11.43
2022-10-23T05:41:37.110Z,11.45
2022-10-23T05:42:39.569Z,11.35
2022-10-23T05:43:37.396Z,11.40
2022-10-23T05:44:37.589Z,11.37
2022-10-23T05:45:37.715Z,11.37
2022-10-23T05:46:37.866Z,11.17
2022-10-23T05:47:37.978Z,11.40
2022-10-23T05:48:38.119Z,11.36
2022-10-23T05:49:38.267Z,11.36
2022-10-23T05:50:38.457Z,11.41
2022-10-23T05:51:38.574Z,11.41
2022-10-23T05:52:38.733Z,11.33
2022-10-23T05:53:41.756Z,11.41
2022-10-23T05:54:39.042Z,11.40
2022-10-23T05:55:39.252Z,11.45
2022-10-23T05:56:39.331Z,11.33
2022-10-23T05:57:39.637Z,11.37
2022-10-23T05:58:39.622Z,11.37
2022-10-23T05:59:39.800Z,11.40
2022-10-23T06:00:39.963Z,11.40
2022-10-23T06:01:40.234Z,11.44
2022-10-23T06:02:40.282Z,11.37
2022-10-23T06:03:40.341Z,11.40
2022-10-23T06:04:40.479Z,11.41
2022-10-23T06:05:40.762Z,11.41
2022-10-23T06:06:40.770Z,11.36
2022-10-23T06:07:41.087Z,11.33
2022-10-23T06:08:41.051Z,11.41
2022-10-23T06:09:41.199Z,11.41
2022-10-23T06:10:41.365Z,11.35
2022-10-23T06:11:41.472Z,11.40
2022-10-23T06:12:41.638Z,11.41
2022-10-23T06:13:41.758Z,11.40
2022-10-23T06:14:41.942Z,11.40
2022-10-23T06:15:42.115Z,11.40
2022-10-23T06:16:42.249Z,11.37
2022-10-23T06:17:42.720Z,11.37
2022-10-23T06:18:42.572Z,11.41
2022-10-23T06:19:42.751Z,11.41
2022-10-23T06:20:42.910Z,11.36
2022-10-23T06:21:43.078Z,11.35
2022-10-23T06:22:43.460Z,11.18
2022-10-23T06:23:43.361Z,11.36
2022-10-23T06:24:43.524Z,11.33
2022-10-23T06:25:43.676Z,11.36
2022-10-23T06:26:43.810Z,11.36
2022-10-23T06:27:43.915Z,11.37
2022-10-23T06:28:44.253Z,11.41
2022-10-23T06:29:44.225Z,11.36
2022-10-23T06:30:44.406Z,11.37
2022-10-23T06:31:44.533Z,11.40
2022-10-23T06:32:45.143Z,11.40
2022-10-23T06:33:44.870Z,11.43
2022-10-23T06:34:44.983Z,11.37
2022-10-23T06:35:45.123Z,11.36
2022-10-23T06:36:45.268Z,11.36
2022-10-23T06:37:45.542Z,11.43
2022-10-23T06:38:45.566Z,11.47
2022-10-23T06:39:45.727Z,11.52
2022-10-23T06:40:45.870Z,11.48
2022-10-23T06:41:46.015Z,11.47
2022-10-23T06:42:46.207Z,11.47
2022-10-23T06:43:46.311Z,11.45
2022-10-23T06:44:46.463Z,11.60
2022-10-23T06:45:46.659Z,11.51
2022-10-23T06:46:46.808Z,11.57
2022-10-23T06:47:47.023Z,11.60
2022-10-23T06:48:47.280Z,11.60
2022-10-23T06:49:47.317Z,11.65
2022-10-23T06:50:47.516Z,11.63
2022-10-23T06:51:47.648Z,11.66
2022-10-23T06:52:48.114Z,11.62
2022-10-23T06:53:47.970Z,11.70
2022-10-23T06:54:48.160Z,11.75
2022-10-23T06:55:50.212Z,11.69
2022-10-23T06:56:48.444Z,11.69
2022-10-23T06:57:48.613Z,11.70
2022-10-23T06:58:48.763Z,11.65
2022-10-23T06:59:48.955Z,11.69
2022-10-23T07:00:49.197Z,11.77
2022-10-23T07:01:49.447Z,11.77
2022-10-23T07:02:49.417Z,11.70
2022-10-23T07:03:49.624Z,11.77
2022-10-23T07:04:49.827Z,11.84
2022-10-23T07:05:49.920Z,11.87
2022-10-23T07:06:50.078Z,11.81
2022-10-23T07:07:50.237Z,11.87
2022-10-23T07:08:50.400Z,11.90
2022-10-23T07:09:50.680Z,11.81
2022-10-23T07:10:50.713Z,11.90
2022-10-23T07:11:50.867Z,11.95
2022-10-23T07:12:51.019Z,12.00
2022-10-23T07:13:51.197Z,12.02
2022-10-23T07:14:51.381Z,11.90
2022-10-23T07:15:51.540Z,11.99
2022-10-23T07:16:51.702Z,12.02
2022-10-23T07:17:51.837Z,11.99
2022-10-23T07:18:51.992Z,12.02
2022-10-23T07:19:52.169Z,12.06
2022-10-23T07:20:52.306Z,12.12
2022-10-23T07:21:52.466Z,12.12
2022-10-23T07:22:52.614Z,12.03
2022-10-23T07:23:52.782Z,12.17
2022-10-23T07:24:52.884Z,12.24
2022-10-23T07:25:53.037Z,12.15
2022-10-23T07:26:53.297Z,12.21
2022-10-23T07:27:53.393Z,12.25
2022-10-23T07:28:53.556Z,12.25
2022-10-23T07:29:53.723Z,12.31
2022-10-23T07:30:53.893Z,12.32
2022-10-23T07:31:54.241Z,12.36
2022-10-23T07:32:54.252Z,12.40
2022-10-23T07:33:54.412Z,12.42
2022-10-23T07:34:54.582Z,12.47
2022-10-23T07:35:54.740Z,12.47
2022-10-23T07:36:54.932Z,12.50
2022-10-23T07:37:55.073Z,12.53
2022-10-23T07:38:55.281Z,12.55
2022-10-23T07:39:55.334Z,12.60
2022-10-23T07:40:55.481Z,12.62
2022-10-23T07:41:55.716Z,12.68
2022-10-23T07:42:55.773Z,12.60
2022-10-23T07:43:55.942Z,12.62
2022-10-23T07:44:56.062Z,12.70
2022-10-23T07:45:56.191Z,12.73
2022-10-23T07:46:56.328Z,12.76
2022-10-23T07:47:56.480Z,12.85
2022-10-23T07:48:56.682Z,12.85
2022-10-23T07:49:56.735Z,12.87
2022-10-23T07:50:56.883Z,12.82
2022-10-23T07:51:57.042Z,12.82
2022-10-23T07:52:57.167Z,12.86
2022-10-23T07:53:57.337Z,12.87
2022-10-23T07:54:57.529Z,12.91
2022-10-23T07:55:57.993Z,12.95
2022-10-23T07:56:57.724Z,12.94
2022-10-23T07:57:57.858Z,12.95
2022-10-23T07:58:58.002Z,12.97
2022-10-23T07:59:58.168Z,13.03
2022-10-23T08:00:58.537Z,13.04
2022-10-23T08:01:58.630Z,13.11
2022-10-23T08:02:58.655Z,13.08
2022-10-23T08:03:59.101Z,13.12
2022-10-23T08:04:58.961Z,13.09
2022-10-23T08:05:59.143Z,13.05
2022-10-23T08:06:59.267Z,13.09
2022-10-23T08:07:59.431Z,13.09
2022-10-23T08:09:02.234Z,13.05
2022-10-23T08:09:59.733Z,13.20
2022-10-23T08:10:59.885Z,13.16
2022-10-23T08:12:00.105Z,13.15
2022-10-23T08:13:00.174Z,13.27
2022-10-23T08:14:00.348Z,13.18
2022-10-23T08:15:00.565Z,13.15
2022-10-23T08:16:00.624Z,13.25
2022-10-23T08:18:00.914Z,13.19
2022-10-23T08:19:01.092Z,13.19
2022-10-23T08:20:01.217Z,13.19
2022-10-23T08:21:01.337Z,13.27
2022-10-23T08:22:01.480Z,13.22
2022-10-23T08:23:01.621Z,13.30
2022-10-23T08:24:01.801Z,13.33
2022-10-23T08:25:01.929Z,13.33
2022-10-23T08:26:02.071Z,13.38
2022-10-23T08:27:02.227Z,13.31
2022-10-23T08:28:05.541Z,13.39
2022-10-23T08:29:02.477Z,13.44
2022-10-23T08:30:02.610Z,13.44
2022-10-23T08:31:02.720Z,13.39
2022-10-23T08:32:02.869Z,13.42
2022-10-23T08:33:02.952Z,13.46
2022-10-23T08:34:03.079Z,13.47
2022-10-23T08:35:03.204Z,13.49
2022-10-23T08:36:03.353Z,13.49
2022-10-23T08:37:03.573Z,13.59
2022-10-23T08:38:03.533Z,13.57
2022-10-23T08:39:03.745Z,13.57
2022-10-23T08:40:03.732Z,13.65
2022-10-23T08:41:03.837Z,13.70
2022-10-23T08:42:04.026Z,13.59
2022-10-23T08:43:04.055Z,13.68
2022-10-23T08:44:04.173Z,13.59
2022-10-23T08:45:04.287Z,13.68
2022-10-23T08:46:06.169Z,13.70
2022-10-23T08:47:04.553Z,13.75
2022-10-23T08:48:04.631Z,13.71
2022-10-23T08:49:04.736Z,13.79
2022-10-23T08:50:04.907Z,13.78
2022-10-23T08:51:05.002Z,13.77
2022-10-23T08:52:05.529Z,13.81
2022-10-23T08:53:05.205Z,13.90
2022-10-23T08:54:05.334Z,13.81
2022-10-23T08:55:05.488Z,13.90
2022-10-23T08:56:05.590Z,13.85
2022-10-23T08:57:05.708Z,13.92
2022-10-23T08:58:05.801Z,13.95
2022-10-23T08:59:05.914Z,14.00
2022-10-23T09:00:06.058Z,13.99
2022-10-23T09:01:06.271Z,14.05
2022-10-23T09:02:06.422Z,14.05
2022-10-23T09:03:06.430Z,14.04
2022-10-23T09:04:06.490Z,14.10
2022-10-23T09:05:06.631Z,14.11
2022-10-23T09:06:06.767Z,14.10
2022-10-23T09:07:06.969Z,14.18
2022-10-23T09:08:07.061Z,14.12
2022-10-23T09:09:07.149Z,14.17
2022-10-23T09:10:07.246Z,14.14
2022-10-23T09:11:07.438Z,14.12
2022-10-23T09:12:07.471Z,14.14
2022-10-23T09:13:07.576Z,14.22
2022-10-23T09:14:07.698Z,14.26
2022-10-23T09:15:07.813Z,14.22
2022-10-23T09:16:07.934Z,14.23
2022-10-23T09:17:08.054Z,14.33
2022-10-23T09:18:08.104Z,14.25
2022-10-23T09:19:12.004Z,14.26
2022-10-23T09:20:08.308Z,14.23
2022-10-23T09:21:08.447Z,14.29
2022-10-23T09:22:08.518Z,14.32
2022-10-23T09:23:08.686Z,14.35
2022-10-23T09:24:08.739Z,14.36
2022-10-23T09:25:08.854Z,14.37
2022-10-23T09:26:08.959Z,14.36
2022-10-23T09:27:09.119Z,14.36
2022-10-23T09:28:09.266Z,14.44
2022-10-23T09:29:09.383Z,14.45
2022-10-23T09:30:09.529Z,14.51
2022-10-23T09:31:09.670Z,14.54
2022-10-23T09:32:09.847Z,14.47
2022-10-23T09:33:09.958Z,14.44
2022-10-23T09:34:11.770Z,14.47
2022-10-23T09:35:10.265Z,14.58
2022-10-23T09:36:10.368Z,14.60
2022-10-23T09:37:10.500Z,14.59
2022-10-23T09:38:10.662Z,14.63
2022-10-23T09:39:10.801Z,14.58
2022-10-23T09:40:10.901Z,14.60
2022-10-23T09:41:11.023Z,14.54
2022-10-23T09:42:11.155Z,14.59
2022-10-23T09:43:11.270Z,14.68
2022-10-23T09:44:11.431Z,14.68
2022-10-23T09:45:11.486Z,14.68
2022-10-23T09:46:11.598Z,14.72
2022-10-23T09:47:11.701Z,14.77
2022-10-23T09:48:11.811Z,14.70
2022-10-23T09:49:12.066Z,14.69
2022-10-23T09:50:12.026Z,14.72
2022-10-23T09:51:12.134Z,14.78
2022-10-23T09:52:12.233Z,14.81
2022-10-23T09:53:12.340Z,14.86
2022-10-23T09:54:12.505Z,14.86
2022-10-23T09:55:12.577Z,14.89
2022-10-23T09:56:12.655Z,14.89
2022-10-23T09:57:12.758Z,14.94
2022-10-23T09:58:12.864Z,14.92
2022-10-23T09:59:12.974Z,14.94
2022-10-23T10:00:13.122Z,14.97
2022-10-23T10:01:13.279Z,14.99
2022-10-23T10:02:13.331Z,15.04
2022-10-23T10:03:13.356Z,15.06
2022-10-23T10:04:13.458Z,15.11
2022-10-23T10:05:13.703Z,15.15
2022-10-23T10:06:13.635Z,15.11
2022-10-23T10:07:13.726Z,15.14
2022-10-23T10:08:13.823Z,15.24
2022-10-23T10:09:13.937Z,15.21
2022-10-23T10:10:14.044Z,15.21
2022-10-23T10:11:14.148Z,15.24
2022-10-23T10:12:14.216Z,15.31
2022-10-23T10:13:15.013Z,15.25
2022-10-23T10:14:14.432Z,15.28
2022-10-23T10:15:14.505Z,15.36
2022-10-23T10:16:14.622Z,15.47
2022-10-23T10:17:14.704Z,15.44
2022-10-23T10:18:14.861Z,15.46
2022-10-23T10:19:14.947Z,15.58
2022-10-23T10:20:15.073Z,15.55
2022-10-23T10:21:15.213Z,15.55
2022-10-23T10:22:15.304Z,15.57
2022-10-23T10:23:15.431Z,15.62
2022-10-23T10:24:15.548Z,15.64
2022-10-23T10:25:15.673Z,15.64
2022-10-23T10:26:15.787Z,15.65
2022-10-23T10:27:15.900Z,15.72
2022-10-23T10:28:15.961Z,15.72
2022-10-23T10:29:16.066Z,15.75
2022-10-23T10:30:16.257Z,15.80
2022-10-23T10:31:16.356Z,15.80
2022-10-23T10:32:16.409Z,15.79
2022-10-23T10:33:16.533Z,15.88
2022-10-23T10:34:16.665Z,15.97
2022-10-23T10:35:17.802Z,15.90
2022-10-23T10:36:16.982Z,16.00
2022-10-23T10:37:17.040Z,15.92
2022-10-23T10:38:17.068Z,15.94
2022-10-23T10:39:17.165Z,15.94
2022-10-23T10:40:17.287Z,16.02
2022-10-23T10:41:17.393Z,16.01
2022-10-23T10:42:17.441Z,15.97
2022-10-23T10:43:17.543Z,16.08
2022-10-23T10:44:17.637Z,15.97
2022-10-23T10:45:17.730Z,16.09
2022-10-23T10:46:17.882Z,16.00
2022-10-23T10:47:20.951Z,16.15
2022-10-23T10:48:18.044Z,16.12
2022-10-23T10:49:18.144Z,16.05
2022-10-23T10:50:18.237Z,15.98
2022-10-23T10:51:18.345Z,16.01
2022-10-23T10:52:18.475Z,16.10
2022-10-23T10:53:18.536Z,16.02
2022-10-23T10:54:18.628Z,16.02
2022-10-23T10:55:18.713Z,16.01
2022-10-23T10:56:18.877Z,16.05
2022-10-23T10:57:18.983Z,15.98
2022-10-23T10:58:18.995Z,16.01
2022-10-23T10:59:19.093Z,16.05
2022-10-23T11:00:19.195Z,16.05
2022-10-23T11:01:19.492Z,15.94
2022-10-23T11:02:19.467Z,16.04
2022-10-23T11:03:19.534Z,15.98
2022-10-23T11:04:19.614Z,16.01
2022-10-23T11:05:19.712Z,16.01
2022-10-23T11:06:19.818Z,16.05
2022-10-23T11:07:19.924Z,16.04
2022-10-23T11:08:20.052Z,15.97
2022-10-23T11:09:21.129Z,16.08
2022-10-23T11:10:20.288Z,16.04
2022-10-23T11:11:20.375Z,16.01
2022-10-23T11:12:20.532Z,16.09
2022-10-23T11:13:20.610Z,16.13
2022-10-23T11:14:20.805Z,16.17
2022-10-23T11:15:20.880Z,16.17
2022-10-23T11:16:20.965Z,16.09
2022-10-23T11:17:21.087Z,16.17
2022-10-23T11:18:21.218Z,16.20
2022-10-23T11:19:21.313Z,16.24
2022-10-23T11:20:21.372Z,16.21
2022-10-23T11:21:21.466Z,16.28
2022-10-23T11:22:21.565Z,16.28
2022-10-23T11:23:21.660Z,16.24
2022-10-23T11:24:21.823Z,16.28
2022-10-23T11:25:21.869Z,16.39
2022-10-23T11:26:21.962Z,16.41
2022-10-23T11:27:22.070Z,16.38
2022-10-23T11:28:22.188Z,16.42
2022-10-23T11:29:22.287Z,16.49
2022-10-23T11:30:22.352Z,16.39
2022-10-23T11:31:22.471Z,16.38
2022-10-23T11:32:22.692Z,16.47
2022-10-23T11:33:22.665Z,16.42
2022-10-23T11:34:22.797Z,16.53
2022-10-23T11:35:22.863Z,16.49
2022-10-23T11:36:23.017Z,16.54
2022-10-23T11:37:23.092Z,16.64
2022-10-23T11:38:23.205Z,16.60
2022-10-23T11:39:23.320Z,16.65
2022-10-23T11:40:23.615Z,16.74
2022-10-23T11:41:26.498Z,16.66
2022-10-23T11:42:23.669Z,16.74
2022-10-23T11:43:23.781Z,16.71
2022-10-23T11:44:23.934Z,16.68
2022-10-23T11:45:23.982Z,16.74
2022-10-23T11:46:24.244Z,16.79
2022-10-23T11:47:24.176Z,16.84
2022-10-23T11:48:24.272Z,16.75
2022-10-23T11:49:24.371Z,16.79
2022-10-23T11:50:24.471Z,16.83
2022-10-23T11:51:24.588Z,16.91
2022-10-23T11:52:24.662Z,16.93
2022-10-23T11:53:24.759Z,16.86
2022-10-23T11:54:25.018Z,16.91
2022-10-23T11:55:24.961Z,16.96
2022-10-23T11:56:25.092Z,16.96
2022-10-23T11:57:25.189Z,17.05
2022-10-23T11:58:25.254Z,16.99
2022-10-23T11:59:25.389Z,17.02
2022-10-23T12:00:25.485Z,16.99
2022-10-23T12:01:25.625Z,16.97
2022-10-23T12:02:25.783Z,17.06
2022-10-23T12:03:25.801Z,17.04
2022-10-23T12:04:25.961Z,17.01
2022-10-23T12:05:26.010Z,17.04
2022-10-23T12:06:26.107Z,17.14
2022-10-23T12:07:26.205Z,17.09
2022-10-23T12:08:26.312Z,17.16
2022-10-23T12:09:26.445Z,17.15
2022-10-23T12:10:26.528Z,17.12
2022-10-23T12:11:27.600Z,17.14
2022-10-23T12:12:26.910Z,17.15
2022-10-23T12:13:26.858Z,17.15
2022-10-23T12:14:26.948Z,17.16
2022-10-23T12:15:27.067Z,17.16
2022-10-23T12:16:27.248Z,17.19
2022-10-23T12:17:27.330Z,17.26
2022-10-23T12:18:27.413Z,17.26
2022-10-23T12:19:27.525Z,17.24
2022-10-23T12:20:27.669Z,17.23
2022-10-23T12:21:27.776Z,17.16
2022-10-23T12:22:27.910Z,17.19
2022-10-23T12:23:27.966Z,17.24
2022-10-23T12:24:28.031Z,17.27
2022-10-23T12:25:28.124Z,17.23
2022-10-23T12:26:28.260Z,17.24
2022-10-23T12:27:28.332Z,17.26
2022-10-23T12:28:28.427Z,17.26
2022-10-23T12:29:28.633Z,17.24
2022-10-23T12:30:28.610Z,17.30
2022-10-23T12:31:28.704Z,17.23
2022-10-23T12:32:28.842Z,17.31
2022-10-23T12:33:28.938Z,17.27
2022-10-23T12:34:29.083Z,17.30
2022-10-23T12:35:29.158Z,17.36
2022-10-23T12:36:29.315Z,17.31
2022-10-23T12:37:29.390Z,17.30
2022-10-23T12:38:33.867Z,17.36
2022-10-23T12:39:29.650Z,17.29
2022-10-23T12:40:29.726Z,17.38
2022-10-23T12:41:29.870Z,17.36
2022-10-23T12:42:29.958Z,17.34
2022-10-23T12:43:30.043Z,17.33
2022-10-23T12:44:30.141Z,17.33
2022-10-23T12:45:30.217Z,17.31
2022-10-23T12:46:30.392Z,17.36
2022-10-23T12:47:30.471Z,17.34
2022-10-23T12:48:30.456Z,17.33
2022-10-23T12:49:30.540Z,17.39
2022-10-23T12:50:30.613Z,17.33
2022-10-23T12:51:30.734Z,17.42
2022-10-23T12:52:30.758Z,17.42
2022-10-23T12:53:30.852Z,17.39
2022-10-23T12:54:30.925Z,17.34
2022-10-23T12:55:33.608Z,17.44
2022-10-23T12:56:33.007Z,17.34